Flight Track Log - Related Links

Times and Time Zones

All times are in EDT time to prevent confusion due to time zone crossing. See the AAL1181 flight status page for this flight to view local times or setup timezone preferences in your user account.

Time Position Orientation Groundspeed Altitude Reporting Facility
EDT Latitude Longitude Course Direction KTS MPH feet Rate Location/Type
Wed 07:38:40 PM 47.4706 -122.3075 119° Southeast 167 192 1,300  Level Seattle Center
Wed 07:38:59 PM 47.4858 -122.3086 357° North 173 199 2,100 1,869 Climbing Seattle Center
Wed 07:39:41 PM 47.5178 -122.3089 360° North 168 193 3,200 1,672 Climbing Seattle Center
Wed 07:40:00 PM 47.5353 -122.3108 356° North 175 201 3,800 1,574 Climbing Seattle Center
Wed 07:40:42 PM 47.5725 -122.3103 North 192 221 4,800 1,433 Climbing Seattle Center
Wed 07:41:00 PM 47.2699 -121.8196 159° South  Level Estimated
Wed 07:41:07 PM 47.6028 -122.2967 17° North 240 276 5,400  Level Seattle Center
Wed 07:41:44 PM 47.6139 -122.2306 76° East 278 320 6,600 2,164 Climbing Seattle Center
Wed 07:42:00 PM 47.2094 -121.6562 119° Southeast  Level Estimated
Wed 07:42:08 PM 47.5983 -122.1906 120° Southeast 293 337 7,600  Level Seattle Center
Wed 07:42:45 PM 47.5517 -122.1683 162° South 295 339 9,200 1,898 Climbing Seattle Center
Wed 07:43:00 PM 47.1487 -121.4933 119° Southeast  Level Estimated
Wed 07:43:46 PM 47.4681 -122.1542 173° South 308 354 10,700  Level Seattle Center
Wed 07:44:47 PM 47.3667 -122.1331 172° South 371 427 11,700 2,066 Climbing Seattle Center
Wed 07:45:48 PM 47.2603 -122.1117 172° South 384 442 14,900 2,803 Climbing Seattle Center
Wed 07:46:49 PM 47.1547 -122.0908 172° South 383 441 17,400 2,410 Climbing Seattle Center
Wed 07:47:50 PM 47.0389 -122.0706 173° South 388 447 19,800 2,146 Climbing Seattle Center
Wed 07:48:52 PM 46.9267 -122.0478 172° South 404 465 21,800 1,805 Climbing Seattle Center
Wed 07:49:53 PM 46.8092 -122.0228 172° South 425 489 23,500 1,721 Climbing Seattle Center
Wed 07:50:54 PM 46.7267 -121.8897 132° Southeast 453 521 25,300 1,574 Climbing Seattle Center
Wed 07:51:55 PM 46.6592 -121.7342 122° Southeast 456 525 26,700 1,525 Climbing Seattle Center
Wed 07:52:56 PM 46.5828 -121.5575 122° Southeast 469 540 28,400 1,721 Climbing Seattle Center
Wed 07:53:57 PM 46.5128 -121.3969 122° Southeast 470 541 30,200 1,721 Climbing Seattle Center
Wed 07:54:58 PM 46.4442 -121.2406 122° Southeast 465 535 31,900 1,574 Climbing Seattle Center
Wed 07:55:59 PM 46.3761 -121.0853 122° Southeast 461 531 33,400 1,366 Climbing Seattle Center
Wed 07:57:01 PM 46.3083 -120.9308 122° Southeast 459 528 34,700 1,171 Climbing Seattle Center
Wed 07:58:02 PM 46.2406 -120.7800 123° Southeast 453 521 35,800 984 Climbing Seattle Center
Wed 07:59:03 PM 46.1722 -120.6278 123° Southeast 453 521 36,700 585 Climbing Seattle Center
Wed 08:00:05 PM 46.1022 -120.4761 124° Southeast 451 519 37,000 146 Climbing Seattle Center
Wed 08:01:06 PM 46.0347 -120.3239 123° Southeast 452 520 37,000  Level Seattle Center
Wed 08:02:07 PM 45.9661 -120.1725 123° Southeast 452 520 37,000  Level Seattle Center
Wed 08:03:08 PM 45.8975 -120.0219 123° Southeast 452 520 37,000  Level Seattle Center
Wed 08:04:09 PM 45.8147 -119.8439 124° Southeast 446 513 37,000  Level Seattle Center
Wed 08:05:10 PM 45.7453 -119.6936 123° Southeast 448 516 37,000  Level Seattle Center
Wed 08:06:11 PM 45.6756 -119.5431 123° Southeast 451 519 37,000  Level Seattle Center
Wed 08:07:13 PM 45.6050 -119.3919 124° Southeast 452 520 37,000  Level Seattle Center
Wed 08:08:14 PM 45.5336 -119.2400 124° Southeast 455 524 37,000  Level Seattle Center
Wed 08:09:15 PM 45.4619 -119.0894 124° Southeast 457 526 37,000  Level Seattle Center
Wed 08:10:17 PM 45.3903 -118.9378 124° Southeast 458 527 37,000  Level Seattle Center
Wed 08:11:17 PM 45.3181 -118.7897 125° Southeast 458 527 37,000  Level Seattle Center
Wed 08:12:19 PM 45.2483 -118.6419 124° Southeast 452 520 37,000  Level Seattle Center
Wed 08:13:20 PM 45.1756 -118.4933 125° Southeast 454 522 37,000  Level Seattle Center
Wed 08:14:21 PM 45.1047 -118.3464 124° Southeast 455 524 37,000  Level Seattle Center
Wed 08:15:22 PM 45.0328 -118.1989 125° Southeast 455 524 37,000  Level Seattle Center
Wed 08:16:23 PM 44.9492 -118.0325 125° Southeast 457 526 37,000  Level Seattle Center
Wed 08:17:24 PM 44.8761 -117.8825 124° Southeast 462 532 37,000  Level Seattle Center
Wed 08:18:26 PM 44.8114 -117.7244 120° Southeast 465 535 37,000  Level Seattle Center
Wed 08:19:35 PM 44.7453 -117.5239 115° Southeast 469 540 37,000  Level Salt Lake Center
Wed 08:20:37 PM 44.6872 -117.3600 116° Southeast 469 540 37,000  Level Salt Lake Center
Wed 08:21:39 PM 44.5983 -117.2328 134° Southeast 460 529 37,000  Level Salt Lake Center
Wed 08:22:41 PM 44.5056 -117.1100 137° Southeast 460 529 37,000  Level Salt Lake Center
Wed 08:23:43 PM 44.3961 -116.9611 136° Southeast 460 529 37,000  Level Salt Lake Center
Wed 08:24:45 PM 44.3036 -116.8369 136° Southeast 462 532 37,000  Level Salt Lake Center
Wed 08:25:47 PM 44.2103 -116.7119 136° Southeast 464 534 37,000  Level Salt Lake Center
Wed 08:26:49 PM 44.1156 -116.5844 136° Southeast 475 547 37,000  Level Salt Lake Center
Wed 08:27:51 PM 44.0031 -116.4339 136° Southeast 474 545 37,000  Level Salt Lake Center
Wed 08:28:53 PM 43.9092 -116.3092 136° Southeast 474 545 37,000  Level Salt Lake Center
Wed 08:29:55 PM 43.8153 -116.1853 136° Southeast 471 542 37,000  Level Salt Lake Center
Wed 08:30:57 PM 43.7211 -116.0628 137° Southeast 470 541 37,000  Level Salt Lake Center
Wed 08:31:59 PM 43.6267 -115.9403 137° Southeast 469 540 37,000  Level Salt Lake Center
Wed 08:33:01 PM 43.5375 -115.8103 133° Southeast 469 540 37,000  Level Salt Lake Center
Wed 08:34:03 PM 43.4314 -115.6558 133° Southeast 467 537 37,000  Level Salt Lake Center
Wed 08:35:05 PM 43.3442 -115.5256 133° Southeast 467 537 37,000  Level Salt Lake Center
Wed 08:36:07 PM 43.2592 -115.3925 131° Southeast 465 535 37,000  Level Salt Lake Center
Wed 08:37:09 PM 43.1733 -115.2611 132° Southeast 465 535 37,000  Level Salt Lake Center
Wed 08:38:11 PM 43.0886 -115.1283 131° Southeast 465 535 37,000  Level Salt Lake Center
Wed 08:39:13 PM 42.9867 -114.9678 131° Southeast 466 536 37,000  Level Salt Lake Center
Wed 08:40:15 PM 42.9017 -114.8356 131° Southeast 465 535 37,000  Level Salt Lake Center
Wed 08:41:17 PM 42.8178 -114.7022 131° Southeast 464 534 37,000  Level Salt Lake Center
Wed 08:42:19 PM 42.7242 -114.5575 131° Southeast 466 536 37,000  Level Salt Lake Center
Wed 08:43:21 PM 42.6375 -114.4228 131° Southeast 473 544 37,000  Level Salt Lake Center
Wed 08:44:23 PM 42.5611 -114.2789 126° Southeast 471 542 37,000  Level Salt Lake Center
Wed 08:45:25 PM 42.4814 -114.1336 127° Southeast 477 549 37,000  Level Salt Lake Center
Wed 08:46:27 PM 42.4089 -113.9831 123° Southeast 478 550 37,000  Level Salt Lake Center
Wed 08:47:29 PM 42.3444 -113.8217 118° Southeast 484 557 37,000  Level Salt Lake Center
Wed 08:48:31 PM 42.2614 -113.6300 120° Southeast 490 564 37,000  Level Salt Lake Center
Wed 08:49:32 PM 42.1917 -113.4683 120° Southeast 495 570 37,000  Level Salt Lake Center
Wed 08:50:34 PM 42.1208 -113.3075 121° Southeast 498 573 37,000  Level Salt Lake Center
Wed 08:51:36 PM 42.0503 -113.1461 120° Southeast 498 573 37,000  Level Salt Lake Center
Wed 08:52:38 PM 41.9806 -112.9850 120° Southeast 498 573 37,000  Level Salt Lake Center
Wed 08:53:40 PM 41.9103 -112.8256 121° Southeast 499 574 37,000  Level Salt Lake Center
Wed 08:54:42 PM 41.8392 -112.6669 121° Southeast 498 573 37,000  Level Salt Lake Center
Wed 08:55:44 PM 41.7544 -112.4767 121° Southeast 498 573 37,000  Level Salt Lake Center
Wed 08:56:45 PM 41.6825 -112.3200 122° Southeast 495 570 37,000  Level Salt Lake Center
Wed 08:57:47 PM 41.6125 -112.1625 121° Southeast 494 568 37,000  Level Salt Lake Center
Wed 08:58:49 PM 41.5406 -112.0042 121° Southeast 495 570 37,000  Level Salt Lake Center
Wed 08:59:51 PM 41.4689 -111.8456 121° Southeast 496 571 37,000  Level Salt Lake Center
Wed 09:00:53 PM 41.3964 -111.6869 121° Southeast 496 571 37,000  Level Salt Lake Center
Wed 09:01:54 PM 41.3236 -111.5278 121° Southeast 498 573 37,000  Level Salt Lake Center
Wed 09:02:56 PM 41.2506 -111.3694 121° Southeast 498 573 37,000  Level Salt Lake Center
Wed 09:03:58 PM 41.1789 -111.2128 121° Southeast 497 572 37,000  Level Salt Lake Center
Wed 09:05:00 PM 41.0906 -111.0267 122° Southeast 497 572 37,000  Level Salt Lake Center
Wed 09:06:01 PM 41.0181 -110.8722 122° Southeast 496 571 37,000  Level Salt Lake Center
Wed 09:07:03 PM 40.9453 -110.7186 122° Southeast 495 570 37,000  Level Salt Lake Center
Wed 09:08:05 PM 40.8756 -110.5700 122° Southeast 495 570 37,000 290 Level Salt Lake Center
Wed 09:09:07 PM 40.7914 -110.3986 123° Southeast 496 571 37,600 732 Climbing Salt Lake Center
Wed 09:10:08 PM 40.7236 -110.2556 122° Southeast 490 564 38,500 683 Climbing Salt Lake Center
Wed 09:11:10 PM 40.6442 -110.0917 123° Southeast 489 563 39,000 242 Climbing Salt Lake Center
Wed 09:12:12 PM 40.5714 -109.9397 122° Southeast 489 563 39,000  Level Salt Lake Center
Wed 09:13:13 PM 40.4978 -109.7903 123° Southeast 489 563 39,000  Level Salt Lake Center
Wed 09:14:15 PM 40.4244 -109.6400 123° Southeast 489 563 39,000  Level Salt Lake Center
Wed 09:15:17 PM 40.3522 -109.4917 123° Southeast 488 562 39,000  Level Salt Lake Center
Wed 09:16:18 PM 40.2783 -109.3422 123° Southeast 487 560 39,000  Level Salt Lake Center
Wed 09:17:20 PM 40.1892 -109.1633 123° Southeast 487 560 39,000  Level Salt Lake Center
Wed 09:18:21 PM 40.1144 -109.0125 123° Southeast 489 563 39,000  Level Salt Lake Center
Wed 09:19:23 PM 40.0397 -108.8625 123° Southeast 490 564 39,000  Level Salt Lake Center
Wed 09:20:25 PM 39.9644 -108.7142 123° Southeast 488 562 39,000  Level Salt Lake Center
Wed 09:21:03 PM 39.9189 -108.6233 123° Southeast 490 564 39,000  Level Denver Center
Wed 09:22:05 PM 39.8425 -108.4731 123° Southeast 490 564 39,000  Level Denver Center
Wed 09:23:07 PM 39.7658 -108.3222 123° Southeast 492 566 39,000  Level Denver Center
Wed 09:24:09 PM 39.6881 -108.1747 124° Southeast 491 565 39,000  Level Denver Center
Wed 09:25:11 PM 39.6131 -108.0278 123° Southeast 491 565 39,000  Level Denver Center
Wed 09:26:13 PM 39.5219 -107.8503 124° Southeast 490 564 39,000  Level Denver Center
Wed 09:27:15 PM 39.4447 -107.7044 124° Southeast 492 566 39,000  Level Denver Center
Wed 09:28:17 PM 39.3681 -107.5592 124° Southeast 491 565 39,000  Level Denver Center
Wed 09:29:19 PM 39.2908 -107.4131 124° Southeast 491 565 39,000  Level Denver Center
Wed 09:30:21 PM 39.2142 -107.2672 124° Southeast 492 566 39,000  Level Denver Center
Wed 09:31:23 PM 39.1358 -107.1203 124° Southeast 493 567 39,000  Level Denver Center
Wed 09:32:25 PM 39.0411 -106.9439 125° Southeast 498 573 39,000  Level Denver Center
Wed 09:33:27 PM 38.9636 -106.7978 124° Southeast 498 573 39,000  Level Denver Center
Wed 09:34:29 PM 38.8847 -106.6519 125° Southeast 498 573 39,000  Level Denver Center
Wed 09:35:31 PM 38.8242 -106.4914 116° Southeast 497 572 39,000  Level Denver Center
Wed 09:36:33 PM 38.7769 -106.3225 110° East 502 578 39,000  Level Denver Center
Wed 09:37:35 PM 38.7286 -106.1472 109° East 501 577 39,000  Level Denver Center
Wed 09:38:37 PM 38.6817 -105.9797 110° East 501 577 39,000  Level Denver Center
Wed 09:39:39 PM 38.6339 -105.8119 110° East 502 578 39,000  Level Denver Center
Wed 09:40:41 PM 38.5783 -105.6094 109° East 503 579 39,000  Level Denver Center
Wed 09:41:43 PM 38.5308 -105.4392 110° East 511 588 39,000  Level Denver Center
Wed 09:42:45 PM 38.4847 -105.2689 109° East 512 589 39,000  Level Denver Center
Wed 09:43:47 PM 38.4394 -105.1056 109° East 500 575 39,000  Level Denver Center
Wed 09:44:49 PM 38.3925 -104.9381 110° East 501 577 39,000  Level Denver Center
Wed 09:45:51 PM 38.3394 -104.7369 109° East 501 577 39,000  Level Denver Center
Wed 09:46:53 PM 38.3000 -104.5886 109° East 501 577 39,000  Level Denver Center
Wed 09:47:55 PM 38.2392 -104.4272 116° Southeast 505 581 39,000  Level Denver Center
Wed 09:48:57 PM 38.1594 -104.2394 118° Southeast 505 581 39,000  Level Denver Center
Wed 09:49:59 PM 38.0892 -104.0853 120° Southeast 504 580 39,000  Level Denver Center
Wed 09:51:01 PM 38.0094 -103.9369 124° Southeast 504 580 39,000  Level Denver Center
Wed 09:52:03 PM 37.9253 -103.7931 127° Southeast 505 581 39,000  Level Denver Center
Wed 09:53:05 PM 37.8214 -103.6725 137° Southeast 503 579 39,000  Level Denver Center
Wed 09:54:07 PM 37.7186 -103.5503 137° Southeast 503 579 39,000  Level Denver Center
Wed 09:55:09 PM 37.6156 -103.4283 137° Southeast 503 579 39,000  Level Denver Center
Wed 09:56:11 PM 37.5125 -103.3100 138° Southeast 502 578 39,000  Level Denver Center
Wed 09:57:26 PM 37.3692 -103.1447 137° Southeast 502 578 39,000  Level Albuquerque Center
Wed 09:58:27 PM 37.2678 -103.0267 137° Southeast 500 575 39,000  Level Albuquerque Center
Wed 09:59:28 PM 37.1661 -102.9092 137° Southeast 499 574 39,000  Level Albuquerque Center
Wed 10:00:30 PM 37.0647 -102.7922 137° Southeast 497 572 39,000  Level Albuquerque Center
Wed 10:01:31 PM 36.9622 -102.6736 137° Southeast 498 573 39,000  Level Albuquerque Center
Wed 10:02:32 PM 36.8589 -102.5572 138° Southeast 498 573 39,000  Level Albuquerque Center
Wed 10:03:34 PM 36.7542 -102.4331 136° Southeast 499 574 39,000  Level Albuquerque Center
Wed 10:04:35 PM 36.6672 -102.2928 128° Southeast 507 583 39,000  Level Albuquerque Center
Wed 10:05:37 PM 36.5783 -102.1578 129° Southeast 506 582 39,000  Level Albuquerque Center
Wed 10:06:38 PM 36.4906 -102.0239 129° Southeast 506 582 39,000  Level Albuquerque Center
Wed 10:07:39 PM 36.3842 -101.8656 130° Southeast 500 575 39,000  Level Albuquerque Center
Wed 10:08:41 PM 36.2944 -101.7314 130° Southeast 500 575 39,000  Level Albuquerque Center
Wed 10:09:42 PM 36.2050 -101.5956 129° Southeast 503 579 39,000  Level Albuquerque Center
Wed 10:10:43 PM 36.1150 -101.4603 129° Southeast 503 579 39,000  Level Albuquerque Center
Wed 10:11:45 PM 36.0239 -101.3250 130° Southeast 506 582 39,000  Level Albuquerque Center
Wed 10:12:46 PM 35.9336 -101.1875 129° Southeast 509 586 39,000  Level Albuquerque Center
Wed 10:13:48 PM 35.8417 -101.0547 130° Southeast 509 586 39,000  Level Albuquerque Center
Wed 10:14:49 PM 35.7447 -100.9117 130° Southeast 509 586 39,000  Level Albuquerque Center
Wed 10:15:50 PM 35.6600 -100.7881 130° Southeast 508 585 39,000 -63 Level Albuquerque Center
Wed 10:16:24 PM 35.6033 -100.7014 129° Southeast 499 574 38,900  Descending Fort Worth Center
Wed 10:17:25 PM 35.5119 -100.5697 130° Southeast 505 581 39,000  Climbing Fort Worth Center
Wed 10:18:27 PM 35.4219 -100.4386 130° Southeast 505 581 38,900 -49 Descending Fort Worth Center
Wed 10:19:28 PM 35.3278 -100.3061 131° Southeast 507 583 38,900 49 Level Fort Worth Center
Wed 10:20:29 PM 35.2358 -100.1744 131° Southeast 508 585 39,000  Climbing Fort Worth Center
Wed 10:21:31 PM 35.1431 -100.0431 131° Southeast 510 587 38,900  Descending Fort Worth Center
Wed 10:22:32 PM 35.0508 -99.9119 131° Southeast 510 587 39,000 49 Climbing Fort Worth Center
Wed 10:23:33 PM 34.9394 -99.7539 131° Southeast 512 589 39,000 -49 Level Fort Worth Center
Wed 10:24:35 PM 34.8464 -99.6208 130° Southeast 516 594 38,900 -537 Descending Fort Worth Center
Wed 10:25:36 PM 34.7544 -99.4919 131° Southeast 508 585 37,900 -934 Descending Fort Worth Center
Wed 10:26:37 PM 34.6625 -99.3644 131° Southeast 506 582 37,000 -927 Descending Fort Worth Center
Wed 10:27:39 PM 34.5689 -99.2350 131° Southeast 506 582 36,000 -927 Descending Fort Worth Center
Wed 10:28:40 PM 34.4769 -99.1075 131° Southeast 507 583 35,100 -934 Descending Fort Worth Center
Wed 10:29:41 PM 34.3856 -98.9803 131° Southeast 504 580 34,100 -934 Descending Fort Worth Center
Wed 10:30:42 PM 34.2950 -98.8561 131° Southeast 498 573 33,200 -1,122 Descending Fort Worth Center
Wed 10:31:44 PM 34.2014 -98.7253 131° Southeast 506 582 31,800 -1,951 Descending Fort Worth Center
Wed 10:32:45 PM 34.1083 -98.5994 132° Southeast 504 580 29,200 -2,557 Descending Fort Worth Center
Wed 10:33:46 PM 34.0075 -98.4594 131° Southeast 497 572 26,600 -1,756 Descending Fort Worth Center
Wed 10:34:48 PM 33.9200 -98.3397 131° Southeast 481 554 25,600 -927 Descending Fort Worth Center
Wed 10:35:49 PM 33.8331 -98.2200 131° Southeast 480 552 24,700 -1,426 Descending Fort Worth Center
Wed 10:36:50 PM 33.7353 -98.0886 132° Southeast 469 540 22,700 -2,146 Descending Fort Worth Center
Wed 10:37:52 PM 33.6556 -97.9800 131° Southeast 453 521 20,300 -2,683 Descending Fort Worth Center
Wed 10:38:53 PM 33.5717 -97.8653 131° Southeast 440 506 17,200 -3,443 Descending Fort Worth Center
Wed 10:39:54 PM 33.4825 -97.7594 135° Southeast 432 497 13,300 -2,585 Descending Fort Worth Center
Wed 10:40:56 PM 33.4022 -97.6636 135° Southeast 406 467 11,900 -1,268 Descending Fort Worth Center
Wed 10:41:57 PM 33.3328 -97.5842 136° Southeast 349 402 10,700 -1,082 Descending Fort Worth Center
Wed 10:42:58 PM 33.2786 -97.4847 123° Southeast 332 382 9,700 -1,122 Descending Fort Worth Center
Wed 10:44:00 PM 33.2300 -97.3956 123° Southeast 322 371 8,400 -1,366 Descending Fort Worth Center
Wed 10:45:01 PM 33.1844 -97.3108 123° Southeast 306 352 6,900 -1,426 Descending Fort Worth Center
Wed 10:46:02 PM 33.1403 -97.2325 124° Southeast 286 329 5,500 -1,279 Descending Fort Worth Center
Wed 10:47:03 PM 33.0967 -97.1556 124° Southeast 260 299 4,300 -1,220 Descending Fort Worth Center
Wed 10:48:05 PM 33.0603 -97.0981 127° Southeast 220 253 3,000 -976 Descending Fort Worth Center
Wed 10:49:06 PM 33.0169 -97.0669 149° Southeast 180 207 2,300 -639 Descending Fort Worth Center
Wed 10:50:07 PM 32.9797 -97.0544 164° South 140 161 1,700 -639 Descending Fort Worth Center
Wed 10:51:08 PM 32.9375 -97.0553 181° South 139 160 1,000 -488 Descending Fort Worth Center
Wed 10:52:10 PM 32.8997 -97.0553 180° South 139 160 700 -290 Descending Fort Worth Center

Login

Don't have an account? Register now (free) for customized features, flight alerts, and more!